createdAt,value
2018-01-04T00:01:31.178Z,16.20
2018-01-04T00:04:06.358Z,11.47
2018-01-04T00:06:40.158Z,7.63
2018-01-04T00:09:15.219Z,13.23
2018-01-04T00:11:49.777Z,8.73
2018-01-04T00:14:24.950Z,19.07
2018-01-04T00:16:59.693Z,16.83
2018-01-04T00:19:33.544Z,20.40
2018-01-04T00:22:08.966Z,12.70
2018-01-04T00:24:43.403Z,7.70
2018-01-04T00:27:17.677Z,11.20
2018-01-04T00:29:52.264Z,7.97
2018-01-04T00:32:28.028Z,8.13
2018-01-04T00:35:03.895Z,12.23
2018-01-04T00:37:37.673Z,6.50
2018-01-04T00:40:12.088Z,5.93
2018-01-04T00:42:48.126Z,15.97
2018-01-04T00:45:22.779Z,6.23
2018-01-04T00:47:57.107Z,10.63
2018-01-04T00:50:31.313Z,8.83
2018-01-04T00:53:04.940Z,8.10
2018-01-04T00:55:39.990Z,7.07
2018-01-04T00:58:14.896Z,8.20
2018-01-04T01:00:49.941Z,8.50
2018-01-04T01:03:23.646Z,11.53
2018-01-04T01:05:58.107Z,6.30
2018-01-04T01:08:32.775Z,5.07
2018-01-04T01:11:07.335Z,7.63
2018-01-04T01:13:41.337Z,10.30
2018-01-04T01:16:16.475Z,5.60
2018-01-04T01:18:50.876Z,11.20
2018-01-04T01:21:25.279Z,13.10
2018-01-04T01:23:59.822Z,11.63
2018-01-04T01:26:34.370Z,10.13
2018-01-04T01:29:09.561Z,12.03
2018-01-04T01:31:43.494Z,11.73
2018-01-04T01:34:17.260Z,12.77
2018-01-04T01:36:52.535Z,14.63
2018-01-04T01:39:26.950Z,12.97
2018-01-04T01:42:00.853Z,12.40
2018-01-04T01:44:35.019Z,11.50
2018-01-04T01:47:10.437Z,17.53
2018-01-04T01:49:44.884Z,19.57
2018-01-04T01:52:18.915Z,17.93
2018-01-04T01:54:53.140Z,15.93
2018-01-04T01:57:27.778Z,20.87
2018-01-04T02:00:03.154Z,21.43
2018-01-04T02:02:37.409Z,14.23
2018-01-04T02:05:11.902Z,16.97
2018-01-04T02:07:46.719Z,15.90
2018-01-04T02:10:21.073Z,18.83
2018-01-04T02:12:55.223Z,11.73
2018-01-04T02:15:29.625Z,18.00
2018-01-04T02:18:15.421Z,13.53
2018-01-04T02:21:02.125Z,15.50
2018-01-04T02:23:48.384Z,23.70
2018-01-04T02:26:34.113Z,20.77
2018-01-04T02:29:20.958Z,17.63
2018-01-04T02:32:06.451Z,22.17
2018-01-04T02:34:51.973Z,16.40
2018-01-04T02:37:38.020Z,16.67
2018-01-04T02:40:24.258Z,19.23
2018-01-04T02:43:10.378Z,15.10
2018-01-04T02:45:57.631Z,20.43
2018-01-04T02:48:31.287Z,17.47
2018-01-04T02:51:06.354Z,15.70
2018-01-04T02:53:41.627Z,15.67
2018-01-04T02:56:15.337Z,22.87
2018-01-04T02:58:49.109Z,12.63
2018-01-04T03:01:22.977Z,13.57
2018-01-04T03:03:56.866Z,17.57
2018-01-04T03:06:30.870Z,19.53
2018-01-04T03:09:05.460Z,17.53
2018-01-04T03:11:40.302Z,6.83
2018-01-04T03:14:15.541Z,22.00
2018-01-04T03:16:49.877Z,21.50
2018-01-04T03:19:24.060Z,22.10
2018-01-04T03:22:03.644Z,23.83
2018-01-04T03:24:43.260Z,10.30
2018-01-04T03:27:22.606Z,17.03
2018-01-04T03:30:03.643Z,14.30
2018-01-04T03:32:44.639Z,15.03
2018-01-04T03:35:24.451Z,30.10
2018-01-04T03:38:04.086Z,11.43
2018-01-04T03:40:44.162Z,27.17
2018-01-04T03:43:24.049Z,14.83
2018-01-04T03:46:04.249Z,23.43
2018-01-04T03:48:44.425Z,24.07
2018-01-04T03:51:24.596Z,12.67
2018-01-04T03:54:04.310Z,13.60
2018-01-04T03:56:43.995Z,21.13
2018-01-04T03:59:23.968Z,16.90
2018-01-04T04:02:03.640Z,13.10
2018-01-04T04:04:43.260Z,18.57
2018-01-04T04:07:24.002Z,13.80
2018-01-04T04:09:59.324Z,22.33
2018-01-04T04:12:33.584Z,18.40
2018-01-04T04:15:08.446Z,15.50
2018-01-04T04:17:42.967Z,19.00
2018-01-04T04:20:17.886Z,20.80
2018-01-04T04:22:52.830Z,17.30
2018-01-04T04:25:27.341Z,22.30
2018-01-04T04:28:01.509Z,22.60
2018-01-04T04:30:35.658Z,23.70
2018-01-04T04:33:10.761Z,21.57
2018-01-04T04:35:45.098Z,30.53
2018-01-04T04:38:18.705Z,22.67
2018-01-04T04:40:52.427Z,15.93
2018-01-04T04:43:26.109Z,16.07
2018-01-04T04:46:01.292Z,24.37
2018-01-04T04:48:35.869Z,23.20
2018-01-04T04:51:10.621Z,28.03
2018-01-04T04:53:45.121Z,18.83
2018-01-04T04:56:19.767Z,16.53
2018-01-04T04:58:54.246Z,19.77
2018-01-04T05:01:29.256Z,23.83
2018-01-04T05:04:03.497Z,17.97
2018-01-04T05:06:37.715Z,29.77
2018-01-04T05:09:12.163Z,30.83
2018-01-04T05:11:46.158Z,29.60
2018-01-04T05:14:20.345Z,20.47
2018-01-04T05:16:54.168Z,22.43
2018-01-04T05:19:28.806Z,16.03
2018-01-04T05:22:03.782Z,16.83
2018-01-04T05:24:38.282Z,28.67
2018-01-04T05:27:12.394Z,17.73
2018-01-04T05:29:46.656Z,24.40
2018-01-04T05:32:21.236Z,18.07
2018-01-04T05:34:55.034Z,18.83
2018-01-04T05:37:29.910Z,18.97
2018-01-04T05:40:04.735Z,20.33
2018-01-04T05:42:39.003Z,20.33
2018-01-04T05:45:14.273Z,19.67
2018-01-04T05:47:48.772Z,19.90
2018-01-04T05:50:22.909Z,18.73
2018-01-04T05:52:56.612Z,15.60
2018-01-04T05:55:31.006Z,29.13
2018-01-04T05:58:04.923Z,25.40
2018-01-04T06:00:39.351Z,23.73
2018-01-04T06:03:13.738Z,29.30
2018-01-04T06:05:48.358Z,16.20
2018-01-04T06:08:22.318Z,36.50
2018-01-04T06:10:57.032Z,18.43
2018-01-04T06:13:31.042Z,21.30
2018-01-04T06:16:06.269Z,27.23
2018-01-04T06:18:40.910Z,25.07
2018-01-04T06:21:15.648Z,20.50
2018-01-04T06:23:50.341Z,21.07
2018-01-04T06:26:24.886Z,13.80
2018-01-04T06:29:00.452Z,25.13
2018-01-04T06:31:34.797Z,22.80
2018-01-04T06:34:09.541Z,12.70
2018-01-04T06:36:43.792Z,21.30
2018-01-04T06:39:17.693Z,19.90
2018-01-04T06:41:52.725Z,25.80
2018-01-04T06:44:28.135Z,19.60
2018-01-04T06:47:03.500Z,30.77
2018-01-04T06:49:38.325Z,25.03
2018-01-04T06:52:13.610Z,31.30
2018-01-04T06:54:47.863Z,20.90
2018-01-04T06:57:23.133Z,29.57
2018-01-04T06:59:57.707Z,29.00
2018-01-04T07:02:32.897Z,28.03
2018-01-04T07:05:07.757Z,32.33
2018-01-04T07:07:41.735Z,30.43
2018-01-04T07:10:17.104Z,24.13
2018-01-04T07:12:50.915Z,26.90
2018-01-04T07:15:24.581Z,39.63
2018-01-04T07:17:59.021Z,21.27
2018-01-04T07:20:33.424Z,27.77
2018-01-04T07:23:08.372Z,28.23
2018-01-04T07:25:43.479Z,39.00
2018-01-04T07:28:17.541Z,28.47
2018-01-04T07:30:52.114Z,21.70
2018-01-04T07:33:26.781Z,27.70
2018-01-04T07:36:01.380Z,35.93
2018-01-04T07:38:36.318Z,29.70
2018-01-04T07:41:10.463Z,28.00
2018-01-04T07:43:45.426Z,31.73
2018-01-04T07:46:19.641Z,34.53
2018-01-04T07:48:54.283Z,36.13
2018-01-04T07:51:28.925Z,27.07
2018-01-04T07:54:03.149Z,30.10
2018-01-04T07:56:38.057Z,35.23
2018-01-04T07:59:12.029Z,41.83
2018-01-04T08:01:47.298Z,25.43
2018-01-04T08:04:21.790Z,28.53
2018-01-04T08:06:57.103Z,24.77
2018-01-04T08:09:31.632Z,29.67
2018-01-04T08:12:06.957Z,21.17
2018-01-04T08:14:42.351Z,28.23
2018-01-04T08:17:16.935Z,24.57
2018-01-04T08:19:51.560Z,18.57
2018-01-04T08:22:25.302Z,23.17
2018-01-04T08:24:59.542Z,13.23
2018-01-04T08:27:34.308Z,23.03
2018-01-04T08:30:09.522Z,25.73
2018-01-04T08:32:44.010Z,26.13
2018-01-04T08:35:19.001Z,14.87
2018-01-04T08:37:54.312Z,19.07
2018-01-04T08:40:29.180Z,23.77
2018-01-04T08:43:03.465Z,24.27
2018-01-04T08:45:37.407Z,24.13
2018-01-04T08:48:12.213Z,17.50
2018-01-04T08:50:47.653Z,14.37
2018-01-04T08:53:23.396Z,26.67
2018-01-04T08:55:57.737Z,24.60
2018-01-04T08:58:32.449Z,21.47
2018-01-04T09:01:06.856Z,21.20
2018-01-04T09:03:40.726Z,22.40
2018-01-04T09:06:14.753Z,23.30
2018-01-04T09:08:50.295Z,21.83
2018-01-04T09:11:24.412Z,23.70
2018-01-04T09:13:58.442Z,24.10
2018-01-04T09:16:32.465Z,24.43
2018-01-04T09:19:06.657Z,25.70
2018-01-04T09:21:40.779Z,31.43
2018-01-04T09:24:14.890Z,30.10
2018-01-04T09:26:49.809Z,23.30
2018-01-04T09:29:24.265Z,29.30
2018-01-04T09:31:59.550Z,32.57
2018-01-04T09:34:34.613Z,39.13
2018-01-04T09:37:08.425Z,32.20
2018-01-04T09:39:43.606Z,43.40
2018-01-04T09:42:17.948Z,37.93
2018-01-04T09:44:52.829Z,43.43
2018-01-04T09:47:27.153Z,38.20
2018-01-04T09:50:01.333Z,28.20
2018-01-04T09:52:36.190Z,29.20
2018-01-04T09:55:11.557Z,42.93
2018-01-04T09:57:46.319Z,36.13
2018-01-04T10:00:20.873Z,36.13
2018-01-04T10:02:54.660Z,25.70
2018-01-04T10:05:28.559Z,28.07
2018-01-04T10:08:03.276Z,40.90
2018-01-04T10:10:38.613Z,21.23
2018-01-04T10:13:13.287Z,26.73
2018-01-04T10:15:47.830Z,24.43
2018-01-04T10:18:22.251Z,23.33
2018-01-04T10:20:57.065Z,36.13
2018-01-04T10:23:31.359Z,31.83
2018-01-04T10:26:06.167Z,22.40
2018-01-04T10:28:40.410Z,24.50
2018-01-04T10:31:15.103Z,52.17
2018-01-04T10:33:49.590Z,36.70
2018-01-04T10:36:23.518Z,22.57
2018-01-04T10:38:58.202Z,21.93
2018-01-04T10:41:33.127Z,32.00
2018-01-04T10:44:07.958Z,31.10
2018-01-04T10:46:42.734Z,30.27
2018-01-04T10:49:17.250Z,22.97
2018-01-04T10:51:51.760Z,32.77
2018-01-04T10:54:25.956Z,33.57
2018-01-04T10:56:59.758Z,34.03
2018-01-04T10:59:33.987Z,31.03
2018-01-04T11:02:08.085Z,28.40
2018-01-04T11:04:42.341Z,26.27
2018-01-04T11:07:17.723Z,36.10
2018-01-04T11:09:52.127Z,38.63
2018-01-04T11:12:26.632Z,43.20
2018-01-04T11:15:01.189Z,29.63
2018-01-04T11:17:35.983Z,38.87
2018-01-04T11:20:09.729Z,29.80
2018-01-04T11:22:44.485Z,34.47
2018-01-04T11:25:19.306Z,37.30
2018-01-04T11:27:53.657Z,34.40
2018-01-04T11:30:27.539Z,27.27
2018-01-04T11:33:01.278Z,31.13
2018-01-04T11:35:36.013Z,40.20
2018-01-04T11:38:11.441Z,25.50
2018-01-04T11:40:45.602Z,27.67
2018-01-04T11:43:19.342Z,26.10
2018-01-04T11:45:53.518Z,27.27
2018-01-04T11:48:28.816Z,38.37
2018-01-04T11:51:03.038Z,33.23
2018-01-04T11:53:39.176Z,34.87
2018-01-04T11:56:13.048Z,30.80
2018-01-04T11:58:47.792Z,38.90
2018-01-04T12:01:21.667Z,29.80
2018-01-04T12:03:55.558Z,43.80
2018-01-04T12:06:29.955Z,36.60
2018-01-04T12:09:05.030Z,32.93
2018-01-04T12:11:39.377Z,37.00
2018-01-04T12:14:13.931Z,41.63
2018-01-04T12:16:48.614Z,46.13
2018-01-04T12:19:23.262Z,44.10
2018-01-04T12:21:57.271Z,45.87
2018-01-04T12:24:31.456Z,40.93
2018-01-04T12:27:05.630Z,38.37
2018-01-04T12:29:40.422Z,39.93
2018-01-04T12:32:15.601Z,32.90
2018-01-04T12:34:50.362Z,33.97
2018-01-04T12:37:24.187Z,38.67
2018-01-04T12:39:58.179Z,35.03
2018-01-04T12:42:32.894Z,35.73
2018-01-04T12:45:07.579Z,36.13
2018-01-04T12:47:41.654Z,29.97
2018-01-04T12:50:18.080Z,70.87
2018-01-04T12:52:52.551Z,39.77
2018-01-04T12:55:26.492Z,32.07
2018-01-04T12:58:01.401Z,36.53
2018-01-04T13:00:36.207Z,34.33
2018-01-04T13:03:10.468Z,31.77
2018-01-04T13:05:44.542Z,33.83
2018-01-04T13:08:19.246Z,34.00
2018-01-04T13:10:53.958Z,39.57
2018-01-04T13:13:28.582Z,37.77
2018-01-04T13:16:02.444Z,46.57
2018-01-04T13:18:36.790Z,36.33
2018-01-04T13:21:11.894Z,29.03
2018-01-04T13:23:46.523Z,29.83
2018-01-04T13:26:21.043Z,31.37
2018-01-04T13:28:56.242Z,51.17
2018-01-04T13:31:30.618Z,37.87
2018-01-04T13:34:04.383Z,41.30
2018-01-04T13:36:39.661Z,31.27
2018-01-04T13:39:13.931Z,23.30
2018-01-04T13:41:47.677Z,33.30
2018-01-04T13:44:21.916Z,37.47
2018-01-04T13:46:57.471Z,35.63
2018-01-04T13:49:31.485Z,32.60
2018-01-04T13:52:06.308Z,21.03
2018-01-04T13:54:41.303Z,41.90
2018-01-04T13:57:15.813Z,34.23
2018-01-04T13:59:49.716Z,26.77
2018-01-04T14:02:23.506Z,29.27
2018-01-04T14:04:57.676Z,24.30
2018-01-04T14:07:31.606Z,24.60
2018-01-04T14:10:06.805Z,20.50
2018-01-04T14:12:42.211Z,30.67
2018-01-04T14:15:16.408Z,30.00
2018-01-04T14:17:51.254Z,34.03
2018-01-04T14:20:26.055Z,26.90
2018-01-04T14:22:59.970Z,36.17
2018-01-04T14:25:34.723Z,32.33
2018-01-04T14:28:08.427Z,28.17
2018-01-04T14:30:43.266Z,24.10
2018-01-04T14:33:17.572Z,23.80
2018-01-04T14:35:52.617Z,24.33
2018-01-04T14:38:27.383Z,31.63
2018-01-04T14:41:01.848Z,26.73
2018-01-04T14:43:36.192Z,19.20
2018-01-04T14:46:10.790Z,25.73
2018-01-04T14:48:44.464Z,23.13
2018-01-04T14:51:18.289Z,20.73
2018-01-04T14:53:53.033Z,22.70
2018-01-04T14:56:26.755Z,21.80
2018-01-04T14:59:01.460Z,29.30
2018-01-04T15:01:36.181Z,23.17
2018-01-04T15:04:11.325Z,21.50
2018-01-04T15:06:45.532Z,41.27
2018-01-04T15:09:20.486Z,20.93
2018-01-04T15:11:55.616Z,26.93
2018-01-04T15:14:29.731Z,25.90
2018-01-04T15:17:03.704Z,22.43
2018-01-04T15:19:37.633Z,38.67
2018-01-04T15:22:14.937Z,26.83
2018-01-04T15:24:49.909Z,23.17
2018-01-04T15:27:23.645Z,25.90
2018-01-04T15:29:57.686Z,20.00
2018-01-04T15:32:31.809Z,15.90
2018-01-04T15:35:07.802Z,22.13
2018-01-04T15:37:42.268Z,23.13
2018-01-04T15:40:17.099Z,33.63
2018-01-04T15:42:51.152Z,25.07
2018-01-04T15:45:26.041Z,19.97
2018-01-04T15:48:00.677Z,34.17
2018-01-04T15:50:38.406Z,23.60
2018-01-04T15:53:13.195Z,17.50
2018-01-04T15:55:48.450Z,26.90
2018-01-04T15:58:24.197Z,20.90
2018-01-04T16:00:59.760Z,16.00
2018-01-04T16:03:34.257Z,23.50
2018-01-04T16:06:09.210Z,15.23
2018-01-04T16:08:44.427Z,25.83
2018-01-04T16:11:19.369Z,18.03
2018-01-04T16:13:53.690Z,28.87
2018-01-04T16:16:27.779Z,13.60
2018-01-04T16:19:02.415Z,22.13
2018-01-04T16:21:36.816Z,12.83
2018-01-04T16:24:11.568Z,15.87
2018-01-04T16:26:47.071Z,18.53
2018-01-04T16:29:20.817Z,19.30
2018-01-04T16:31:54.897Z,26.67
2018-01-04T16:34:28.825Z,23.43
2018-01-04T16:37:02.984Z,18.73
2018-01-04T16:39:37.976Z,19.13
2018-01-04T16:42:12.446Z,21.30
2018-01-04T16:44:47.210Z,17.53
2018-01-04T16:47:21.630Z,21.67
2018-01-04T16:49:56.693Z,18.03
2018-01-04T16:52:31.339Z,17.33
2018-01-04T16:55:05.662Z,13.57
